sensor_id;sensor_type;location;lat;lon;timestamp;P1;durP1;ratioP1;P2;durP2;ratioP2
8397;SDS011;4236;54.504;9.588;2022-08-19T00:01:28;26.13;;;20.00;;
8397;SDS011;4236;54.504;9.588;2022-08-19T00:03:56;32.47;;;19.77;;
8397;SDS011;4236;54.504;9.588;2022-08-19T00:06:25;27.60;;;20.23;;
8397;SDS011;4236;54.504;9.588;2022-08-19T00:08:53;32.20;;;19.07;;
8397;SDS011;4236;54.504;9.588;2022-08-19T00:11:22;26.20;;;21.73;;
8397;SDS011;4236;54.504;9.588;2022-08-19T00:13:51;24.13;;;20.97;;
8397;SDS011;4236;54.504;9.588;2022-08-19T00:16:21;26.97;;;21.73;;
8397;SDS011;4236;54.504;9.588;2022-08-19T00:18:52;27.13;;;21.30;;
8397;SDS011;4236;54.504;9.588;2022-08-19T00:21:19;35.37;;;21.40;;
8397;SDS011;4236;54.504;9.588;2022-08-19T00:23:47;26.63;;;19.40;;
8397;SDS011;4236;54.504;9.588;2022-08-19T00:26:15;31.33;;;20.53;;
8397;SDS011;4236;54.504;9.588;2022-08-19T00:28:44;27.23;;;19.87;;
8397;SDS011;4236;54.504;9.588;2022-08-19T00:31:13;27.10;;;20.17;;
8397;SDS011;4236;54.504;9.588;2022-08-19T00:33:42;24.30;;;21.70;;
8397;SDS011;4236;54.504;9.588;2022-08-19T00:36:10;26.60;;;20.70;;
8397;SDS011;4236;54.504;9.588;2022-08-19T00:38:38;21.53;;;19.13;;
8397;SDS011;4236;54.504;9.588;2022-08-19T00:41:09;29.77;;;19.37;;
8397;SDS011;4236;54.504;9.588;2022-08-19T00:43:40;29.80;;;19.30;;
8397;SDS011;4236;54.504;9.588;2022-08-19T00:46:09;22.37;;;18.90;;
8397;SDS011;4236;54.504;9.588;2022-08-19T00:48:37;22.33;;;19.70;;
8397;SDS011;4236;54.504;9.588;2022-08-19T00:51:05;24.43;;;20.30;;
8397;SDS011;4236;54.504;9.588;2022-08-19T00:53:33;23.87;;;19.67;;
8397;SDS011;4236;54.504;9.588;2022-08-19T00:56:01;26.37;;;20.70;;
8397;SDS011;4236;54.504;9.588;2022-08-19T00:58:32;24.63;;;21.13;;
8397;SDS011;4236;54.504;9.588;2022-08-19T01:01:01;23.33;;;18.73;;
8397;SDS011;4236;54.504;9.588;2022-08-19T01:03:31;26.80;;;20.67;;
8397;SDS011;4236;54.504;9.588;2022-08-19T01:06:19;28.20;;;20.53;;
8397;SDS011;4236;54.504;9.588;2022-08-19T01:08:47;36.17;;;21.53;;
8397;SDS011;4236;54.504;9.588;2022-08-19T01:11:15;23.80;;;19.50;;
8397;SDS011;4236;54.504;9.588;2022-08-19T01:13:43;33.77;;;20.77;;
8397;SDS011;4236;54.504;9.588;2022-08-19T01:16:15;27.60;;;21.67;;
8397;SDS011;4236;54.504;9.588;2022-08-19T01:18:47;26.37;;;21.23;;
8397;SDS011;4236;54.504;9.588;2022-08-19T01:21:16;27.40;;;20.50;;
8397;SDS011;4236;54.504;9.588;2022-08-19T01:23:49;27.43;;;21.40;;
8397;SDS011;4236;54.504;9.588;2022-08-19T01:26:19;28.23;;;20.20;;
8397;SDS011;4236;54.504;9.588;2022-08-19T01:28:50;27.00;;;20.40;;
8397;SDS011;4236;54.504;9.588;2022-08-19T01:31:24;27.93;;;20.67;;
8397;SDS011;4236;54.504;9.588;2022-08-19T01:33:58;27.90;;;20.53;;
8397;SDS011;4236;54.504;9.588;2022-08-19T01:36:27;26.23;;;20.87;;
8397;SDS011;4236;54.504;9.588;2022-08-19T01:38:58;26.57;;;20.50;;
8397;SDS011;4236;54.504;9.588;2022-08-19T01:41:27;21.97;;;19.57;;
8397;SDS011;4236;54.504;9.588;2022-08-19T01:43:54;29.30;;;20.63;;
8397;SDS011;4236;54.504;9.588;2022-08-19T01:46:43;24.93;;;21.40;;
8397;SDS011;4236;54.504;9.588;2022-08-19T01:49:11;25.40;;;18.90;;
8397;SDS011;4236;54.504;9.588;2022-08-19T01:51:38;25.20;;;22.40;;
8397;SDS011;4236;54.504;9.588;2022-08-19T01:54:08;24.50;;;21.90;;
8397;SDS011;4236;54.504;9.588;2022-08-19T01:56:36;33.83;;;21.87;;
8397;SDS011;4236;54.504;9.588;2022-08-19T01:59:04;26.50;;;20.47;;
8397;SDS011;4236;54.504;9.588;2022-08-19T02:01:37;28.17;;;20.97;;
8397;SDS011;4236;54.504;9.588;2022-08-19T02:04:05;26.40;;;18.20;;
8397;SDS011;4236;54.504;9.588;2022-08-19T02:06:33;27.50;;;20.43;;
8397;SDS011;4236;54.504;9.588;2022-08-19T02:09:00;28.80;;;19.97;;
8397;SDS011;4236;54.504;9.588;2022-08-19T02:11:31;28.07;;;19.80;;
8397;SDS011;4236;54.504;9.588;2022-08-19T02:14:02;26.80;;;21.27;;
8397;SDS011;4236;54.504;9.588;2022-08-19T02:16:31;29.00;;;21.40;;
8397;SDS011;4236;54.504;9.588;2022-08-19T02:19:00;28.90;;;21.73;;
8397;SDS011;4236;54.504;9.588;2022-08-19T02:21:28;28.80;;;20.90;;
8397;SDS011;4236;54.504;9.588;2022-08-19T02:23:56;26.93;;;21.73;;
8397;SDS011;4236;54.504;9.588;2022-08-19T02:26:24;27.47;;;21.23;;
8397;SDS011;4236;54.504;9.588;2022-08-19T02:28:54;32.00;;;22.53;;
8397;SDS011;4236;54.504;9.588;2022-08-19T02:31:23;29.73;;;23.30;;
8397;SDS011;4236;54.504;9.588;2022-08-19T02:33:54;39.40;;;22.07;;
8397;SDS011;4236;54.504;9.588;2022-08-19T02:36:22;27.13;;;22.40;;
8397;SDS011;4236;54.504;9.588;2022-08-19T02:38:51;32.07;;;22.20;;
8397;SDS011;4236;54.504;9.588;2022-08-19T02:41:21;38.23;;;24.77;;
8397;SDS011;4236;54.504;9.588;2022-08-19T02:43:52;40.57;;;24.30;;
8397;SDS011;4236;54.504;9.588;2022-08-19T02:46:41;37.83;;;22.77;;
8397;SDS011;4236;54.504;9.588;2022-08-19T02:49:10;41.17;;;24.23;;
8397;SDS011;4236;54.504;9.588;2022-08-19T02:51:39;48.40;;;24.23;;
8397;SDS011;4236;54.504;9.588;2022-08-19T02:54:08;48.47;;;26.30;;
8397;SDS011;4236;54.504;9.588;2022-08-19T02:56:37;37.70;;;24.70;;
8397;SDS011;4236;54.504;9.588;2022-08-19T02:59:06;38.13;;;27.47;;
8397;SDS011;4236;54.504;9.588;2022-08-19T03:01:37;39.43;;;24.20;;
8397;SDS011;4236;54.504;9.588;2022-08-19T03:04:09;49.13;;;25.23;;
8397;SDS011;4236;54.504;9.588;2022-08-19T03:06:39;43.50;;;25.67;;
8397;SDS011;4236;54.504;9.588;2022-08-19T03:09:08;53.13;;;26.97;;
8397;SDS011;4236;54.504;9.588;2022-08-19T03:11:36;45.77;;;26.00;;
8397;SDS011;4236;54.504;9.588;2022-08-19T03:14:05;49.03;;;26.37;;
8397;SDS011;4236;54.504;9.588;2022-08-19T03:16:39;42.87;;;25.80;;
8397;SDS011;4236;54.504;9.588;2022-08-19T03:19:10;31.23;;;23.80;;
8397;SDS011;4236;54.504;9.588;2022-08-19T03:21:38;34.20;;;24.40;;
8397;SDS011;4236;54.504;9.588;2022-08-19T03:24:06;40.30;;;25.27;;
8397;SDS011;4236;54.504;9.588;2022-08-19T03:26:38;55.20;;;26.57;;
8397;SDS011;4236;54.504;9.588;2022-08-19T03:29:06;43.23;;;26.20;;
8397;SDS011;4236;54.504;9.588;2022-08-19T03:31:38;49.40;;;28.03;;
8397;SDS011;4236;54.504;9.588;2022-08-19T03:34:20;42.00;;;24.83;;
8397;SDS011;4236;54.504;9.588;2022-08-19T03:36:52;46.43;;;26.10;;
8397;SDS011;4236;54.504;9.588;2022-08-19T03:39:21;43.73;;;26.97;;
8397;SDS011;4236;54.504;9.588;2022-08-19T03:41:50;35.97;;;24.27;;
8397;SDS011;4236;54.504;9.588;2022-08-19T03:44:39;38.67;;;24.03;;
8397;SDS011;4236;54.504;9.588;2022-08-19T03:47:08;45.90;;;26.83;;
8397;SDS011;4236;54.504;9.588;2022-08-19T03:49:42;45.07;;;26.37;;
8397;SDS011;4236;54.504;9.588;2022-08-19T03:52:10;40.87;;;27.23;;
8397;SDS011;4236;54.504;9.588;2022-08-19T03:54:38;46.60;;;27.70;;
8397;SDS011;4236;54.504;9.588;2022-08-19T03:57:05;49.13;;;29.00;;
8397;SDS011;4236;54.504;9.588;2022-08-19T03:59:35;37.80;;;25.43;;
8397;SDS011;4236;54.504;9.588;2022-08-19T04:02:06;45.50;;;25.80;;
8397;SDS011;4236;54.504;9.588;2022-08-19T04:04:35;36.00;;;25.50;;
8397;SDS011;4236;54.504;9.588;2022-08-19T04:07:06;45.07;;;28.13;;
8397;SDS011;4236;54.504;9.588;2022-08-19T04:09:34;39.47;;;26.23;;
8397;SDS011;4236;54.504;9.588;2022-08-19T04:12:03;37.30;;;23.20;;
8397;SDS011;4236;54.504;9.588;2022-08-19T04:14:33;44.57;;;28.60;;
8397;SDS011;4236;54.504;9.588;2022-08-19T04:17:02;43.03;;;26.77;;
8397;SDS011;4236;54.504;9.588;2022-08-19T04:19:32;33.47;;;23.50;;
8397;SDS011;4236;54.504;9.588;2022-08-19T04:22:00;41.43;;;25.70;;
8397;SDS011;4236;54.504;9.588;2022-08-19T04:24:30;41.83;;;24.97;;
8397;SDS011;4236;54.504;9.588;2022-08-19T04:26:58;35.47;;;25.07;;
8397;SDS011;4236;54.504;9.588;2022-08-19T04:29:26;42.87;;;23.97;;
8397;SDS011;4236;54.504;9.588;2022-08-19T04:31:55;48.33;;;26.70;;
8397;SDS011;4236;54.504;9.588;2022-08-19T04:34:24;40.70;;;25.10;;
8397;SDS011;4236;54.504;9.588;2022-08-19T04:36:54;43.27;;;26.57;;
8397;SDS011;4236;54.504;9.588;2022-08-19T04:39:24;45.10;;;26.50;;
8397;SDS011;4236;54.504;9.588;2022-08-19T04:42:16;35.13;;;22.93;;
8397;SDS011;4236;54.504;9.588;2022-08-19T04:45:03;37.80;;;26.40;;
8397;SDS011;4236;54.504;9.588;2022-08-19T04:47:34;36.30;;;26.27;;
8397;SDS011;4236;54.504;9.588;2022-08-19T04:50:22;36.67;;;23.80;;
8397;SDS011;4236;54.504;9.588;2022-08-19T04:52:51;39.43;;;26.47;;
8397;SDS011;4236;54.504;9.588;2022-08-19T04:55:19;38.50;;;26.03;;
8397;SDS011;4236;54.504;9.588;2022-08-19T04:57:48;36.83;;;24.27;;
8397;SDS011;4236;54.504;9.588;2022-08-19T05:00:17;40.93;;;26.60;;
8397;SDS011;4236;54.504;9.588;2022-08-19T05:02:44;41.30;;;25.43;;
8397;SDS011;4236;54.504;9.588;2022-08-19T05:05:12;37.50;;;27.17;;
8397;SDS011;4236;54.504;9.588;2022-08-19T05:07:40;53.57;;;29.40;;
8397;SDS011;4236;54.504;9.588;2022-08-19T05:10:08;44.43;;;29.07;;
8397;SDS011;4236;54.504;9.588;2022-08-19T05:12:37;50.27;;;28.90;;
8397;SDS011;4236;54.504;9.588;2022-08-19T05:15:07;51.20;;;30.63;;
8397;SDS011;4236;54.504;9.588;2022-08-19T05:17:35;53.00;;;30.43;;
8397;SDS011;4236;54.504;9.588;2022-08-19T05:20:05;47.73;;;31.27;;
8397;SDS011;4236;54.504;9.588;2022-08-19T05:22:51;46.73;;;30.40;;
8397;SDS011;4236;54.504;9.588;2022-08-19T05:25:20;51.33;;;32.10;;
8397;SDS011;4236;54.504;9.588;2022-08-19T05:27:48;65.50;;;31.77;;
8397;SDS011;4236;54.504;9.588;2022-08-19T05:30:17;52.00;;;28.10;;
8397;SDS011;4236;54.504;9.588;2022-08-19T05:33:05;70.90;;;31.60;;
8397;SDS011;4236;54.504;9.588;2022-08-19T05:35:35;54.93;;;31.63;;
8397;SDS011;4236;54.504;9.588;2022-08-19T05:38:03;50.90;;;29.93;;
8397;SDS011;4236;54.504;9.588;2022-08-19T05:40:31;54.17;;;31.13;;
8397;SDS011;4236;54.504;9.588;2022-08-19T05:43:00;46.70;;;32.23;;
8397;SDS011;4236;54.504;9.588;2022-08-19T05:45:29;47.53;;;29.87;;
8397;SDS011;4236;54.504;9.588;2022-08-19T05:47:57;51.70;;;29.80;;
8397;SDS011;4236;54.504;9.588;2022-08-19T05:50:25;49.97;;;29.43;;
8397;SDS011;4236;54.504;9.588;2022-08-19T05:52:52;48.47;;;28.80;;
8397;SDS011;4236;54.504;9.588;2022-08-19T05:55:20;44.47;;;28.87;;
8397;SDS011;4236;54.504;9.588;2022-08-19T05:57:48;43.57;;;25.63;;
8397;SDS011;4236;54.504;9.588;2022-08-19T06:00:16;43.03;;;26.57;;
8397;SDS011;4236;54.504;9.588;2022-08-19T06:02:51;43.73;;;28.30;;
8397;SDS011;4236;54.504;9.588;2022-08-19T06:05:20;47.77;;;29.70;;
8397;SDS011;4236;54.504;9.588;2022-08-19T06:07:48;50.17;;;28.27;;
8397;SDS011;4236;54.504;9.588;2022-08-19T06:10:16;50.03;;;29.47;;
8397;SDS011;4236;54.504;9.588;2022-08-19T06:12:43;36.70;;;27.40;;
8397;SDS011;4236;54.504;9.588;2022-08-19T06:15:12;45.13;;;28.57;;
8397;SDS011;4236;54.504;9.588;2022-08-19T06:17:40;39.03;;;26.33;;
8397;SDS011;4236;54.504;9.588;2022-08-19T06:20:12;43.70;;;27.70;;
8397;SDS011;4236;54.504;9.588;2022-08-19T06:22:45;38.10;;;27.40;;
8397;SDS011;4236;54.504;9.588;2022-08-19T06:25:15;38.33;;;25.97;;
8397;SDS011;4236;54.504;9.588;2022-08-19T06:27:43;40.83;;;26.73;;
8397;SDS011;4236;54.504;9.588;2022-08-19T06:30:31;36.97;;;24.60;;
8397;SDS011;4236;54.504;9.588;2022-08-19T06:32:59;38.57;;;24.90;;
8397;SDS011;4236;54.504;9.588;2022-08-19T06:35:28;45.50;;;26.50;;
8397;SDS011;4236;54.504;9.588;2022-08-19T06:37:56;34.93;;;25.70;;
8397;SDS011;4236;54.504;9.588;2022-08-19T06:40:24;34.03;;;25.47;;
8397;SDS011;4236;54.504;9.588;2022-08-19T06:42:51;33.03;;;23.63;;
8397;SDS011;4236;54.504;9.588;2022-08-19T06:45:20;34.87;;;24.50;;
8397;SDS011;4236;54.504;9.588;2022-08-19T06:47:50;36.20;;;24.50;;
8397;SDS011;4236;54.504;9.588;2022-08-19T06:50:22;34.07;;;23.90;;
8397;SDS011;4236;54.504;9.588;2022-08-19T06:52:51;35.23;;;24.93;;
8397;SDS011;4236;54.504;9.588;2022-08-19T06:55:20;27.33;;;23.97;;
8397;SDS011;4236;54.504;9.588;2022-08-19T06:57:49;31.33;;;24.10;;
8397;SDS011;4236;54.504;9.588;2022-08-19T07:00:19;32.57;;;25.53;;
8397;SDS011;4236;54.504;9.588;2022-08-19T07:02:47;42.23;;;27.50;;
8397;SDS011;4236;54.504;9.588;2022-08-19T07:05:22;33.43;;;25.37;;
8397;SDS011;4236;54.504;9.588;2022-08-19T07:07:51;37.03;;;25.83;;
8397;SDS011;4236;54.504;9.588;2022-08-19T07:10:23;31.07;;;25.80;;
8397;SDS011;4236;54.504;9.588;2022-08-19T07:12:51;32.63;;;25.77;;
8397;SDS011;4236;54.504;9.588;2022-08-19T07:15:20;34.73;;;25.67;;
8397;SDS011;4236;54.504;9.588;2022-08-19T07:17:47;31.20;;;25.63;;
8397;SDS011;4236;54.504;9.588;2022-08-19T07:20:18;28.43;;;24.70;;
8397;SDS011;4236;54.504;9.588;2022-08-19T07:22:46;37.87;;;25.73;;
8397;SDS011;4236;54.504;9.588;2022-08-19T07:25:15;31.27;;;25.03;;
8397;SDS011;4236;54.504;9.588;2022-08-19T07:27:43;29.70;;;25.50;;
8397;SDS011;4236;54.504;9.588;2022-08-19T07:30:19;30.37;;;26.87;;
8397;SDS011;4236;54.504;9.588;2022-08-19T07:32:51;29.93;;;24.57;;
8397;SDS011;4236;54.504;9.588;2022-08-19T07:35:19;32.33;;;24.83;;
8397;SDS011;4236;54.504;9.588;2022-08-19T07:37:46;28.47;;;24.60;;
8397;SDS011;4236;54.504;9.588;2022-08-19T07:40:15;29.10;;;25.23;;
8397;SDS011;4236;54.504;9.588;2022-08-19T07:42:43;35.80;;;25.73;;
8397;SDS011;4236;54.504;9.588;2022-08-19T07:45:11;36.50;;;25.57;;
8397;SDS011;4236;54.504;9.588;2022-08-19T07:47:39;27.03;;;23.97;;
8397;SDS011;4236;54.504;9.588;2022-08-19T07:50:16;29.37;;;24.83;;
8397;SDS011;4236;54.504;9.588;2022-08-19T07:52:46;26.20;;;23.33;;
8397;SDS011;4236;54.504;9.588;2022-08-19T07:55:20;28.40;;;24.50;;
8397;SDS011;4236;54.504;9.588;2022-08-19T07:58:06;30.50;;;24.93;;
8397;SDS011;4236;54.504;9.588;2022-08-19T08:00:33;28.83;;;24.70;;
8397;SDS011;4236;54.504;9.588;2022-08-19T08:03:02;26.90;;;23.20;;
8397;SDS011;4236;54.504;9.588;2022-08-19T08:05:29;27.33;;;24.27;;
8397;SDS011;4236;54.504;9.588;2022-08-19T08:08:14;29.53;;;24.93;;
8397;SDS011;4236;54.504;9.588;2022-08-19T08:11:01;27.07;;;24.27;;
8397;SDS011;4236;54.504;9.588;2022-08-19T08:13:32;30.93;;;25.60;;
8397;SDS011;4236;54.504;9.588;2022-08-19T08:16:01;29.37;;;26.37;;
8397;SDS011;4236;54.504;9.588;2022-08-19T08:18:29;29.30;;;26.33;;
8397;SDS011;4236;54.504;9.588;2022-08-19T08:20:57;28.43;;;25.33;;
8397;SDS011;4236;54.504;9.588;2022-08-19T08:23:25;32.00;;;26.10;;
8397;SDS011;4236;54.504;9.588;2022-08-19T08:25:54;29.03;;;25.93;;
8397;SDS011;4236;54.504;9.588;2022-08-19T08:28:26;35.50;;;27.50;;
8397;SDS011;4236;54.504;9.588;2022-08-19T08:30:55;29.83;;;26.60;;
8397;SDS011;4236;54.504;9.588;2022-08-19T08:33:26;31.40;;;26.93;;
8397;SDS011;4236;54.504;9.588;2022-08-19T08:36:00;30.07;;;26.83;;
8397;SDS011;4236;54.504;9.588;2022-08-19T08:38:29;36.23;;;28.60;;
8397;SDS011;4236;54.504;9.588;2022-08-19T08:41:05;32.60;;;27.57;;
8397;SDS011;4236;54.504;9.588;2022-08-19T08:43:44;37.00;;;29.27;;
8397;SDS011;4236;54.504;9.588;2022-08-19T08:46:13;32.63;;;28.60;;
8397;SDS011;4236;54.504;9.588;2022-08-19T08:48:59;36.27;;;29.63;;
8397;SDS011;4236;54.504;9.588;2022-08-19T08:51:36;32.77;;;28.60;;
8397;SDS011;4236;54.504;9.588;2022-08-19T08:54:13;39.37;;;29.70;;
8397;SDS011;4236;54.504;9.588;2022-08-19T08:56:45;35.40;;;26.93;;
8397;SDS011;4236;54.504;9.588;2022-08-19T08:59:19;40.33;;;29.50;;
8397;SDS011;4236;54.504;9.588;2022-08-19T09:01:48;34.23;;;27.37;;
8397;SDS011;4236;54.504;9.588;2022-08-19T09:04:16;33.53;;;27.60;;
8397;SDS011;4236;54.504;9.588;2022-08-19T09:06:48;39.43;;;29.77;;
8397;SDS011;4236;54.504;9.588;2022-08-19T09:09:23;28.53;;;25.37;;
8397;SDS011;4236;54.504;9.588;2022-08-19T09:12:00;34.07;;;26.53;;
8397;SDS011;4236;54.504;9.588;2022-08-19T09:14:39;30.60;;;26.20;;
8397;SDS011;4236;54.504;9.588;2022-08-19T09:17:17;31.13;;;24.40;;
8397;SDS011;4236;54.504;9.588;2022-08-19T09:19:48;29.00;;;25.80;;
8397;SDS011;4236;54.504;9.588;2022-08-19T09:22:18;28.23;;;24.20;;
8397;SDS011;4236;54.504;9.588;2022-08-19T09:24:51;24.87;;;22.33;;
8397;SDS011;4236;54.504;9.588;2022-08-19T09:27:21;26.57;;;23.80;;
8397;SDS011;4236;54.504;9.588;2022-08-19T09:30:11;31.33;;;24.20;;
8397;SDS011;4236;54.504;9.588;2022-08-19T09:32:42;29.77;;;24.00;;
8397;SDS011;4236;54.504;9.588;2022-08-19T09:35:11;27.83;;;23.27;;
8397;SDS011;4236;54.504;9.588;2022-08-19T09:37:40;27.93;;;24.40;;
8397;SDS011;4236;54.504;9.588;2022-08-19T09:40:09;25.93;;;21.70;;
8397;SDS011;4236;54.504;9.588;2022-08-19T09:42:38;24.23;;;21.53;;
8397;SDS011;4236;54.504;9.588;2022-08-19T09:45:17;30.83;;;23.67;;
8397;SDS011;4236;54.504;9.588;2022-08-19T09:47:48;26.53;;;23.90;;
8397;SDS011;4236;54.504;9.588;2022-08-19T09:50:17;27.77;;;23.00;;
8397;SDS011;4236;54.504;9.588;2022-08-19T09:52:45;27.53;;;24.37;;
8397;SDS011;4236;54.504;9.588;2022-08-19T09:55:23;32.80;;;24.90;;
8397;SDS011;4236;54.504;9.588;2022-08-19T09:57:58;28.97;;;25.20;;
8397;SDS011;4236;54.504;9.588;2022-08-19T10:00:29;31.60;;;23.63;;
8397;SDS011;4236;54.504;9.588;2022-08-19T10:02:57;27.57;;;24.27;;
8397;SDS011;4236;54.504;9.588;2022-08-19T10:05:26;30.30;;;23.63;;
8397;SDS011;4236;54.504;9.588;2022-08-19T10:08:14;28.73;;;24.93;;
8397;SDS011;4236;54.504;9.588;2022-08-19T10:10:42;26.07;;;23.37;;
8397;SDS011;4236;54.504;9.588;2022-08-19T10:13:12;26.13;;;23.33;;
8397;SDS011;4236;54.504;9.588;2022-08-19T10:15:42;30.07;;;24.50;;
8397;SDS011;4236;54.504;9.588;2022-08-19T10:18:14;26.10;;;23.50;;
8397;SDS011;4236;54.504;9.588;2022-08-19T10:20:44;31.77;;;24.77;;
8397;SDS011;4236;54.504;9.588;2022-08-19T10:23:17;29.70;;;26.57;;
8397;SDS011;4236;54.504;9.588;2022-08-19T10:25:46;30.10;;;24.20;;
8397;SDS011;4236;54.504;9.588;2022-08-19T10:28:14;26.67;;;23.87;;
8397;SDS011;4236;54.504;9.588;2022-08-19T10:30:46;27.20;;;23.70;;
8397;SDS011;4236;54.504;9.588;2022-08-19T10:33:14;32.47;;;26.67;;
8397;SDS011;4236;54.504;9.588;2022-08-19T10:36:03;27.23;;;24.30;;
8397;SDS011;4236;54.504;9.588;2022-08-19T10:38:33;29.40;;;24.10;;
8397;SDS011;4236;54.504;9.588;2022-08-19T10:41:08;37.10;;;25.80;;
8397;SDS011;4236;54.504;9.588;2022-08-19T10:43:37;28.70;;;24.93;;
8397;SDS011;4236;54.504;9.588;2022-08-19T10:46:07;29.10;;;25.17;;
8397;SDS011;4236;54.504;9.588;2022-08-19T10:48:42;29.57;;;24.60;;
8397;SDS011;4236;54.504;9.588;2022-08-19T10:51:10;30.00;;;26.73;;
8397;SDS011;4236;54.504;9.588;2022-08-19T10:53:56;25.40;;;22.77;;
8397;SDS011;4236;54.504;9.588;2022-08-19T10:56:24;26.27;;;23.60;;
8397;SDS011;4236;54.504;9.588;2022-08-19T10:59:10;26.93;;;23.87;;
8397;SDS011;4236;54.504;9.588;2022-08-19T11:01:39;27.43;;;24.70;;
8397;SDS011;4236;54.504;9.588;2022-08-19T11:04:08;28.13;;;24.40;;
8397;SDS011;4236;54.504;9.588;2022-08-19T11:06:39;26.33;;;23.70;;
8397;SDS011;4236;54.504;9.588;2022-08-19T11:09:07;25.03;;;22.53;;
8397;SDS011;4236;54.504;9.588;2022-08-19T11:11:37;24.00;;;21.50;;
8397;SDS011;4236;54.504;9.588;2022-08-19T11:14:07;23.83;;;21.33;;
8397;SDS011;4236;54.504;9.588;2022-08-19T11:16:35;26.90;;;24.13;;
8397;SDS011;4236;54.504;9.588;2022-08-19T11:19:06;25.77;;;22.83;;
8397;SDS011;4236;54.504;9.588;2022-08-19T11:21:36;24.87;;;22.27;;
8397;SDS011;4236;54.504;9.588;2022-08-19T11:24:07;23.50;;;21.30;;
8397;SDS011;4236;54.504;9.588;2022-08-19T11:26:36;26.07;;;22.43;;
8397;SDS011;4236;54.504;9.588;2022-08-19T11:29:05;23.43;;;21.40;;
8397;SDS011;4236;54.504;9.588;2022-08-19T11:31:38;26.53;;;23.53;;
8397;SDS011;4236;54.504;9.588;2022-08-19T11:34:09;26.43;;;23.93;;
8397;SDS011;4236;54.504;9.588;2022-08-19T11:36:41;21.43;;;19.53;;
8397;SDS011;4236;54.504;9.588;2022-08-19T11:39:12;25.30;;;22.83;;
8397;SDS011;4236;54.504;9.588;2022-08-19T11:41:41;25.77;;;23.30;;
8397;SDS011;4236;54.504;9.588;2022-08-19T11:44:09;24.93;;;22.43;;
8397;SDS011;4236;54.504;9.588;2022-08-19T11:46:37;22.03;;;19.93;;
8397;SDS011;4236;54.504;9.588;2022-08-19T11:49:05;21.37;;;19.47;;
8397;SDS011;4236;54.504;9.588;2022-08-19T11:51:41;23.07;;;20.30;;
8397;SDS011;4236;54.504;9.588;2022-08-19T11:54:09;23.40;;;21.10;;
8397;SDS011;4236;54.504;9.588;2022-08-19T11:56:39;20.97;;;18.97;;
8397;SDS011;4236;54.504;9.588;2022-08-19T11:59:07;23.73;;;21.43;;
8397;SDS011;4236;54.504;9.588;2022-08-19T12:01:40;25.03;;;22.17;;
8397;SDS011;4236;54.504;9.588;2022-08-19T12:04:09;22.53;;;20.33;;
8397;SDS011;4236;54.504;9.588;2022-08-19T12:06:38;20.23;;;18.30;;
8397;SDS011;4236;54.504;9.588;2022-08-19T12:09:08;21.07;;;19.03;;
8397;SDS011;4236;54.504;9.588;2022-08-19T12:11:37;22.20;;;20.10;;
8397;SDS011;4236;54.504;9.588;2022-08-19T12:14:08;23.60;;;21.30;;
8397;SDS011;4236;54.504;9.588;2022-08-19T12:16:40;24.90;;;20.67;;
8397;SDS011;4236;54.504;9.588;2022-08-19T12:19:17;20.73;;;18.90;;
8397;SDS011;4236;54.504;9.588;2022-08-19T12:21:49;22.63;;;20.60;;
8397;SDS011;4236;54.504;9.588;2022-08-19T12:24:19;21.07;;;18.93;;
8397;SDS011;4236;54.504;9.588;2022-08-19T12:26:49;21.27;;;19.27;;
8397;SDS011;4236;54.504;9.588;2022-08-19T12:29:19;22.93;;;20.93;;
8397;SDS011;4236;54.504;9.588;2022-08-19T12:31:49;22.20;;;20.30;;
8397;SDS011;4236;54.504;9.588;2022-08-19T12:34:16;22.77;;;20.40;;
8397;SDS011;4236;54.504;9.588;2022-08-19T12:36:46;20.67;;;18.87;;
8397;SDS011;4236;54.504;9.588;2022-08-19T12:39:16;20.13;;;18.30;;
8397;SDS011;4236;54.504;9.588;2022-08-19T12:41:44;21.70;;;19.80;;
8397;SDS011;4236;54.504;9.588;2022-08-19T12:44:20;19.73;;;17.83;;
8397;SDS011;4236;54.504;9.588;2022-08-19T12:46:58;21.27;;;19.17;;
8397;SDS011;4236;54.504;9.588;2022-08-19T12:49:29;19.73;;;18.00;;
8397;SDS011;4236;54.504;9.588;2022-08-19T12:52:19;21.70;;;19.60;;
8397;SDS011;4236;54.504;9.588;2022-08-19T12:54:50;19.80;;;18.20;;
8397;SDS011;4236;54.504;9.588;2022-08-19T12:57:20;20.23;;;18.40;;
8397;SDS011;4236;54.504;9.588;2022-08-19T12:59:57;18.97;;;17.37;;
8397;SDS011;4236;54.504;9.588;2022-08-19T13:02:25;18.23;;;16.80;;
8397;SDS011;4236;54.504;9.588;2022-08-19T13:04:53;17.77;;;16.23;;
8397;SDS011;4236;54.504;9.588;2022-08-19T13:07:20;17.90;;;16.50;;
8397;SDS011;4236;54.504;9.588;2022-08-19T13:09:52;17.77;;;16.07;;
8397;SDS011;4236;54.504;9.588;2022-08-19T13:12:19;16.30;;;15.07;;
8397;SDS011;4236;54.504;9.588;2022-08-19T13:14:50;18.60;;;16.90;;
8397;SDS011;4236;54.504;9.588;2022-08-19T13:17:18;18.07;;;16.47;;
8397;SDS011;4236;54.504;9.588;2022-08-19T13:19:45;19.33;;;17.50;;
8397;SDS011;4236;54.504;9.588;2022-08-19T13:22:13;18.70;;;17.20;;
8397;SDS011;4236;54.504;9.588;2022-08-19T13:24:41;19.47;;;17.80;;
8397;SDS011;4236;54.504;9.588;2022-08-19T13:27:14;17.33;;;15.73;;
8397;SDS011;4236;54.504;9.588;2022-08-19T13:29:41;16.97;;;15.60;;
8397;SDS011;4236;54.504;9.588;2022-08-19T13:32:28;17.80;;;16.30;;
8397;SDS011;4236;54.504;9.588;2022-08-19T13:35:14;17.30;;;15.97;;
8397;SDS011;4236;54.504;9.588;2022-08-19T13:37:42;18.50;;;16.90;;
8397;SDS011;4236;54.504;9.588;2022-08-19T13:40:12;17.90;;;16.40;;
8397;SDS011;4236;54.504;9.588;2022-08-19T13:42:45;19.40;;;17.57;;
8397;SDS011;4236;54.504;9.588;2022-08-19T13:45:14;17.70;;;16.17;;
8397;SDS011;4236;54.504;9.588;2022-08-19T13:47:44;20.33;;;18.43;;
8397;SDS011;4236;54.504;9.588;2022-08-19T13:50:14;18.80;;;17.20;;
8397;SDS011;4236;54.504;9.588;2022-08-19T13:52:43;18.10;;;16.70;;
8397;SDS011;4236;54.504;9.588;2022-08-19T13:55:11;18.80;;;17.30;;
8397;SDS011;4236;54.504;9.588;2022-08-19T13:57:50;18.43;;;16.83;;
8397;SDS011;4236;54.504;9.588;2022-08-19T14:00:19;17.93;;;16.43;;
8397;SDS011;4236;54.504;9.588;2022-08-19T14:02:50;16.50;;;15.20;;
8397;SDS011;4236;54.504;9.588;2022-08-19T14:05:19;17.17;;;15.67;;
8397;SDS011;4236;54.504;9.588;2022-08-19T14:07:47;15.57;;;14.27;;
8397;SDS011;4236;54.504;9.588;2022-08-19T14:10:16;18.53;;;17.03;;
8397;SDS011;4236;54.504;9.588;2022-08-19T14:12:45;17.00;;;15.50;;
8397;SDS011;4236;54.504;9.588;2022-08-19T14:15:14;16.57;;;15.17;;
8397;SDS011;4236;54.504;9.588;2022-08-19T14:17:43;16.70;;;15.10;;
8397;SDS011;4236;54.504;9.588;2022-08-19T14:20:12;17.60;;;16.17;;
8397;SDS011;4236;54.504;9.588;2022-08-19T14:22:44;17.00;;;15.37;;
8397;SDS011;4236;54.504;9.588;2022-08-19T14:25:13;17.50;;;16.00;;
8397;SDS011;4236;54.504;9.588;2022-08-19T14:27:42;14.53;;;13.13;;
8397;SDS011;4236;54.504;9.588;2022-08-19T14:30:12;15.93;;;14.70;;
8397;SDS011;4236;54.504;9.588;2022-08-19T14:32:43;16.50;;;15.30;;
8397;SDS011;4236;54.504;9.588;2022-08-19T14:35:11;15.63;;;14.53;;
8397;SDS011;4236;54.504;9.588;2022-08-19T14:37:41;16.60;;;15.60;;
8397;SDS011;4236;54.504;9.588;2022-08-19T14:40:22;17.90;;;16.60;;
8397;SDS011;4236;54.504;9.588;2022-08-19T14:42:52;17.27;;;15.87;;
8397;SDS011;4236;54.504;9.588;2022-08-19T14:45:27;16.43;;;15.33;;
8397;SDS011;4236;54.504;9.588;2022-08-19T14:47:57;16.20;;;15.07;;
8397;SDS011;4236;54.504;9.588;2022-08-19T14:50:25;18.00;;;16.60;;
8397;SDS011;4236;54.504;9.588;2022-08-19T14:52:57;17.90;;;16.63;;
8397;SDS011;4236;54.504;9.588;2022-08-19T14:55:33;19.93;;;18.17;;
8397;SDS011;4236;54.504;9.588;2022-08-19T14:58:02;19.20;;;17.80;;
8397;SDS011;4236;54.504;9.588;2022-08-19T15:00:35;18.70;;;17.10;;
8397;SDS011;4236;54.504;9.588;2022-08-19T15:03:03;20.07;;;18.53;;
8397;SDS011;4236;54.504;9.588;2022-08-19T15:05:30;18.13;;;16.83;;
8397;SDS011;4236;54.504;9.588;2022-08-19T15:08:02;20.87;;;19.00;;
8397;SDS011;4236;54.504;9.588;2022-08-19T15:10:30;18.90;;;17.50;;